EW2255 Weather Reports


Display with metric or nautical units.
time (UTC)temp
F
wind
direction
speed
MPH
gust
MPH
rain 1hr
in
rain 24hr
in
rain mn
in
humidity
%
barometer
mb
20180226031338 27 239 15.0 21.0 0.00 0.00 0.00 80 1007.8
20180226030840 27 245 17.0 23.0 0.00 0.00 0.00 80 1007.7
20180226030743 27 242 16.0 23.0 0.00 0.00 0.00 80 1008.8
20180226030350 27 238 19.0 25.0 0.00 0.00 0.00 80 1007.6
20180226025830 27 236 17.0 25.0 0.00 0.00 0.00 80 1007.5
20180226025332 27 245 18.0 23.0 0.00 0.00 0.00 80 1007.4
20180226025143 27 242 18.0 23.0 0.00 0.00 0.00 80 1008.5
20180226024841 27 243 17.0 22.0 0.00 0.00 0.00 80 1007.4
20180226023831 27 242 17.0 23.0 0.00 0.00 0.00 80 1007.1
20180226023554 27 244 17.0 23.0 0.00 0.00 0.00 80 1008.2
20180226023334 27 238 18.0 23.0 0.00 0.00 0.00 80 1007.0
20180226022842 27 238 17.0 24.0 0.00 0.00 0.00 81 1006.9
20180226022328 27 240 16.0 24.0 0.00 0.00 0.00 80 1006.8
20180226021954 27 230 18.0 25.0 0.00 0.00 0.00 81 1007.8
20180226021830 27 236 17.0 25.0 0.00 0.00 0.00 81 1006.6
20180226021338 27 234 16.0 21.0 0.00 0.00 0.00 81 1006.5
20180226020840 26 238 14.0 20.0 0.00 0.00 0.00 81 1006.4
20180226020354 26 236 15.0 20.0 0.00 0.00 0.00 81 1007.4
20180226020343 27 234 15.0 20.0 0.00 0.00 0.00 81 1006.3
20180226015839 26 227 16.0 20.0 0.00 0.00 0.00 82 1006.2
20180226015340 26 243 15.0 20.0 0.00 0.00 0.00 82 1006.1
20180226014841 26 232 14.0 19.0 0.00 0.00 0.00 82 1006.1
20180226014649 26 233 12.0 20.0 0.00 0.00 0.00 81 1007.1
20180226014349 27 227 14.0 20.0 0.00 0.00 0.00 81 1005.9
20180226013831 27 234 15.0 21.0 0.00 0.00 0.00 81 1005.9
20180226013333 27 232 15.0 21.0 0.00 0.00 0.00 81 1005.8
20180226013046 27 223 15.0 21.0 0.00 0.00 0.00 81 1006.9
20180226012832 27 240 16.0 21.0 0.00 0.00 0.00 81 1005.7
20180226012341 27 238 15.0 22.0 0.00 0.00 0.00 81 1005.6
20180226011843 27 239 15.0 22.0 0.00 0.00 0.00 81 1005.6
20180226011451 27 227 15.0 22.0 0.00 0.00 0.00 81 1006.7
20180226011352 27 232 16.0 22.0 0.00 0.00 0.00 82 1005.5
20180226010833 27 230 327.0 327.0 0.00 0.00 0.00 82 1005.4
20180226010337 26 227 14.0 19.0 0.00 0.00 0.00 82 1005.4
20180226005845 27 234 14.0 25.0 0.00 0.00 0.00 81 1005.3
20180226005748 26 230 13.0 25.0 0.00 0.00 0.00 81 1006.4
20180226005335 27 242 15.0 22.0 0.00 0.00 0.00 81 1005.3
20180226004840 27 240 15.0 21.0 0.00 0.00 0.00 81 1005.1
20180226004341 27 243 15.0 21.0 0.00 0.00 0.00 81 1004.9
20180226004047 27 232 14.0 21.0 0.00 0.00 0.00 81 1006.0
20180226003849 27 221 15.0 21.0 0.00 0.00 0.00 81 1004.8
20180226003332 27 232 16.0 21.0 0.00 0.00 0.00 81 1004.8
20180226002833 27 234 16.0 21.0 0.00 0.00 0.00 81 1004.8
20180226002445 27 240 15.0 19.0 0.00 0.00 0.00 81 1005.8
20180226002332 27 240 16.0 20.0 0.00 0.00 0.00 81 1004.7
20180226001849 27 247 16.0 20.0 0.00 0.00 0.00 80 1004.6
20180226001331 27 232 17.0 21.0 0.00 0.00 0.00 80 1004.5
20180226000832 28 232 16.0 22.0 0.00 0.00 0.00 79 1004.3
20180226000746 27 238 17.0 22.0 0.00 0.00 0.00 79 1005.4
20180226000341 28 231 16.0 22.0 0.00 0.00 0.00 80 1004.2
20180225235842 27 243 16.0 23.0 0.00 0.00 0.00 81 1004.1
20180225235343 27 244 18.0 26.0 0.00 0.00 0.00 81 1003.9
20180225235143 27 236 17.0 26.0 0.00 0.00 0.00 81 1004.9
20180225234853 28 248 20.0 26.0 0.00 0.00 0.00 80 1003.8
20180225234334 27 238 19.0 27.0 0.00 0.00 0.00 80 1003.6
20180225233836 27 236 18.0 27.0 0.00 0.00 0.00 81 1003.5
20180225233545 27 236 20.0 27.0 0.00 0.00 0.00 81 1004.5
20180225233346 27 235 20.0 26.0 0.00 0.00 0.00 81 1003.3
20180225232826 27 241 19.0 25.0 0.00 0.00 0.00 82 1003.2
20180225232329 27 235 17.0 24.0 0.00 0.00 0.00 82 1003.1
20180225231943 26 246 17.0 29.0 0.00 0.00 0.00 82 1004.1
20180225231831 27 238 18.0 29.0 0.00 0.00 0.00 82 1003.0
20180225231340 27 244 22.0 29.0 0.00 0.00 0.00 82 1002.8
20180225230842 27 237 20.0 27.0 0.00 0.00 0.00 81 1002.6
20180225230352 27 243 20.0 28.0 0.00 0.00 0.00 82 1002.4
20180225230339 27 245 20.0 28.0 0.00 0.00 0.00 81 1003.5
20180225225833 27 232 22.0 27.0 0.00 0.00 0.00 81 1002.3
20180225225335 27 235 20.0 28.0 0.00 0.00 0.00 81 1002.2
20180225224846 27 231 23.0 31.0 0.00 0.00 0.00 81 1002.0
20180225224735 27 241 20.0 31.0 0.00 0.00 0.00 81 1003.0
20180225224327 28 243 24.0 31.0 0.00 0.00 0.00 81 1001.9
20180225223828 28 234 22.0 29.0 0.00 0.00 0.00 82 1001.7
20180225223331 28 238 22.0 29.0 0.00 0.00 0.00 81 1001.7
20180225223134 27 236 21.0 29.0 0.00 0.00 0.00 82 1002.6
20180225222839 28 248 22.0 29.0 0.00 0.00 0.00 81 1001.5
20180225222342 28 242 22.0 30.0 0.00 0.00 0.00 81 1001.4
20180225221852 28 254 24.0 29.0 0.00 0.00 0.00 80 1001.2
20180225221534 27 240 23.0 31.0 0.00 0.00 0.00 80 1002.3
20180225221331 28 240 23.0 31.0 0.00 0.00 0.00 81 1001.1
20180225220840 28 242 24.0 30.0 0.00 0.00 0.00 80 1001.0
20180225220343 28 246 23.0 30.0 0.00 0.00 0.00 80 1000.8
20180225215851 28 241 22.0 28.0 0.00 0.01 0.00 80 1000.7
20180225215832 27 244 21.0 28.0 0.00 0.01 0.00 80 1001.8
20180225215333 28 250 20.0 29.0 0.00 0.01 0.00 81 1000.7
20180225214835 28 257 22.0 29.0 0.00 0.01 0.00 80 1000.6
20180225214344 28 244 22.0 30.0 0.00 0.01 0.00 80 1000.4
20180225214230 27 245 20.0 30.0 0.00 0.01 0.00 81 1001.6
20180225213829 28 242 21.0 30.0 0.00 0.01 0.00 81 1000.4
20180225213333 28 248 20.0 28.0 0.00 0.01 0.00 81 1000.3
20180225212833 28 252 22.0 34.0 0.00 0.01 0.00 82 1000.1
20180225212630 27 251 23.0 34.0 0.00 0.01 0.00 80 1001.1
20180225212341 28 244 22.0 34.0 0.00 0.01 0.00 81 999.9
20180225211843 28 252 23.0 29.0 0.00 0.01 0.00 82 999.9
20180225211352 27 254 19.0 25.0 0.00 0.01 0.00 83 999.7
20180225211032 27 252 18.0 28.0 0.00 0.01 0.00 83 1000.7
20180225210834 28 244 20.0 28.0 0.00 0.01 0.00 82 999.6
20180225210340 27 247 23.0 28.0 0.00 0.01 0.00 83 999.4
20180225205841 28 233 19.0 27.0 0.00 0.02 0.00 83 999.3
20180225205434 27 247 21.0 31.0 0.00 0.02 0.00 82 1000.1
20180225205350 28 243 22.0 31.0 0.00 0.02 0.00 82 999.0
20180225204831 28 269 23.0 31.0 0.00 0.02 0.00 82 998.9
20180225204333 28 251 24.0 28.0 0.00 0.02 0.00 82 998.8
20180225203842 28 249 19.0 28.0 0.00 0.02 0.00 83 998.6
20180225203828 27 244 18.0 28.0 0.00 0.02 0.00 83 999.7
20180225203345 28 233 23.0 28.0 0.00 0.02 0.00 82 998.5
20180225202842 27 241 20.0 34.0 0.00 0.02 0.00 83 998.4
20180225202331 27 262 24.0 34.0 0.00 0.02 0.00 82 998.3
20180225202126 27 229 25.0 34.0 0.00 0.02 0.00 83 999.3
20180225201835 27 235 20.0 26.0 0.00 0.02 0.00 83 998.2
20180225201334 28 240 19.0 31.0 0.00 0.02 0.00 82 998.2
20180225200843 28 245 24.0 31.0 0.00 0.02 0.00 81 998.0
20180225200520 27 246 20.0 33.0 0.00 0.02 0.00 82 998.9
20180225200343 27 238 22.0 33.0 0.00 0.02 0.00 82 997.9
20180225195843 27 255 25.0 32.0 0.00 0.04 0.00 82 997.9
20180225195334 27 230 24.0 32.0 0.00 0.04 0.00 83 997.9
20180225194916 27 245 22.0 32.0 0.00 0.04 0.00 83 998.8
20180225194835 27 254 21.0 32.0 0.00 0.04 0.00 82 997.8
20180225194337 27 236 25.0 33.0 0.00 0.04 0.00 84 997.6
20180225193844 27 238 27.0 34.0 0.00 0.04 0.00 84 997.6
20180225193327 27 254 25.0 34.0 0.00 0.04 0.00 82 997.6
20180225193309 27 240 26.0 34.0 0.00 0.04 0.00 82 998.6
20180225192828 27 246 26.0 33.0 0.00 0.04 0.00 84 997.4
20180225192331 27 239 25.0 36.0 0.00 0.04 0.00 84 997.2
20180225191847 27 230 29.0 36.0 0.00 0.04 0.00 84 997.1
20180225191618 26 244 23.0 34.0 0.00 0.04 0.00 84 998.1
20180225191327 27 241 24.0 34.0 0.00 0.04 0.00 84 997.1
20180225190829 27 244 24.0 32.0 0.00 0.04 0.00 84 996.9
20180225190341 27 240 23.0 34.0 0.00 0.04 0.00 85 996.9
20180225190015 26 248 26.0 34.0 0.00 0.04 0.00 84 997.9
20180225185842 27 248 21.0 34.0 0.00 0.09 0.00 84 997.0
20180225185344 27 242 22.0 38.0 0.00 0.09 0.00 85 996.8
20180225184826 27 268 28.0 38.0 0.00 0.09 0.00 84 996.8
20180225184421 26 244 24.0 35.0 0.00 0.09 0.00 84 997.8
20180225184335 27 234 21.0 33.0 0.00 0.09 0.00 83 996.7
20180225183835 27 248 25.0 33.0 0.00 0.09 0.00 83 996.6
20180225183344 27 244 26.0 33.0 0.00 0.09 0.00 84 996.5
20180225182845 27 246 23.0 37.0 0.00 0.09 0.00 84 996.5
20180225182808 26 236 23.0 37.0 0.00 0.09 0.00 84 997.5
20180225182326 27 251 30.0 37.0 0.00 0.09 0.00 84 996.4
20180225181829 27 238 26.0 37.0 0.00 0.09 0.00 85 996.3
20180225181337 27 248 25.0 37.0 0.00 0.09 0.00 85 996.3
20180225181210 27 258 28.0 37.0 0.00 0.09 0.00 84 997.3
20180225180839 27 257 23.0 32.0 0.00 0.09 0.00 84 996.2
20180225180349 27 245 23.0 32.0 0.00 0.09 0.00 84 996.1
20180225175830 27 239 23.0 33.0 0.00 0.11 0.00 85 996.0
20180225175613 27 247 19.0 33.0 0.00 0.11 0.00 85 996.9
20180225175332 27 246 24.0 35.0 0.00 0.11 0.00 85 995.8
20180225174834 27 251 29.0 35.0 0.00 0.11 0.00 84 995.7
20180225174343 27 238 23.0 31.0 0.00 0.11 0.00 86 995.7
20180225174010 27 242 25.0 31.0 0.00 0.11 0.00 85 996.5
20180225173842 27 236 25.0 31.0 0.00 0.11 0.00 86 995.5
20180225173352 27 242 27.0 36.0 0.00 0.11 0.00 86 995.3
20180225172835 27 257 26.0 36.0 0.00 0.11 0.00 84 995.3
20180225172416 27 254 30.0 37.0 0.00 0.11 0.00 85 996.2
20180225172337 27 250 31.0 37.0 0.00 0.11 0.00 85 995.1
20180225171839 27 244 24.0 40.0 0.00 0.11 0.00 86 995.1
20180225171348 27 246 24.0 35.0 0.00 0.11 0.00 86 994.9
20180225170829 27 229 28.0 34.0 0.00 0.11 0.00 85 994.9
20180225170806 27 245 27.0 34.0 0.00 0.11 0.00 85 995.9
20180225170330 27 256 29.0 34.0 0.00 0.11 0.00 86 994.9
20180225165840 27 258 24.0 33.0 0.00 0.11 0.00 86 994.8
20180225165342 27 238 24.0 37.0 0.00 0.11 0.00 86 994.7
20180225165159 27 248 26.0 37.0 0.00 0.11 0.00 85 995.6
20180225164850 27 253 28.0 37.0 0.00 0.11 0.00 86 994.6
20180225164332 27 242 26.0 34.0 0.00 0.11 0.00 85 994.4
20180225163834 28 239 25.0 34.0 0.00 0.11 0.00 86 994.4
20180225163556 27 242 25.0 31.0 0.00 0.11 0.00 85 995.3
20180225163336 28 248 26.0 32.0 0.00 0.11 0.00 86 994.3
20180225162843 28 250 24.0 37.0 0.00 0.11 0.00 86 994.1
20180225162330 28 232 24.0 38.0 0.00 0.11 0.00 86 994.1
20180225161956 27 227 28.0 38.0 0.00 0.11 0.00 86 995.0
20180225161831 28 246 30.0 38.0 0.00 0.11 0.00 86 993.9
20180225161341 28 232 24.0 33.0 0.00 0.11 0.00 85 993.9
20180225160842 28 245 26.0 35.0 0.00 0.11 0.00 86 993.7
20180225160345 28 238 26.0 35.0 0.00 0.11 0.00 85 993.6
20180225160245 28 254 27.0 35.0 0.00 0.11 0.00 85 994.5
20180225155826 28 231 25.0 32.0 0.00 0.12 0.00 84 993.5
20180225155335 28 259 25.0 30.0 0.00 0.12 0.00 85 993.5
20180225154837 28 238 22.0 31.0 0.00 0.12 0.00 84 993.4
20180225154646 28 236 25.0 34.0 0.00 0.12 0.00 84 994.3
20180225154346 28 246 24.0 34.0 0.00 0.12 0.00 84 993.3
20180225153828 28 265 25.0 38.0 0.00 0.12 0.00 84 993.1
20180225153331 28 243 28.0 38.0 0.00 0.12 0.00 84 993.0
20180225153047 28 255 21.0 34.0 0.00 0.12 0.00 86 993.9
20180225152839 28 235 24.0 34.0 0.00 0.12 0.00 86 992.9
20180225152347 29 251 22.0 33.0 0.00 0.12 0.00 86 992.8
20180225151835 29 242 25.0 33.0 0.00 0.12 0.00 86 992.4
20180225151344 29 244 24.0 31.0 0.00 0.12 0.00 87 992.4
20180225151153 28 232 26.0 32.0 0.00 0.12 0.00 86 993.3
20180225150826 29 241 23.0 32.0 0.00 0.12 0.00 86 992.1
20180225145837 29 244 20.0 27.0 0.00 0.12 0.00 87 992.0
20180225145555 29 241 21.0 27.0 0.00 0.12 0.00 87 992.9
20180225145339 29 249 20.0 27.0 0.00 0.12 0.00 87 991.8
20180225144848 29 234 21.0 30.0 0.00 0.12 0.00 88 991.8
20180225144330 29 257 23.0 33.0 0.00 0.12 0.00 88 991.7
20180225143958 29 252 24.0 33.0 0.00 0.12 0.00 88 992.6
20180225143832 29 250 25.0 33.0 0.00 0.12 0.00 88 991.5
20180225143342 30 244 22.0 31.0 0.00 0.12 0.00 88 991.5
20180225142842 30 244 24.0 31.0 0.00 0.12 0.00 88 991.4
20180225142357 29 256 22.0 29.0 0.00 0.12 0.00 89 992.3
20180225142344 30 241 23.0 29.0 0.00 0.12 0.00 89 991.3
20180225141825 30 241 23.0 30.0 0.00 0.12 0.00 88 991.2
20180225141335 30 257 24.0 34.0 0.00 0.12 0.00 88 991.1
20180225140837 30 225 22.0 34.0 0.00 0.12 0.00 88 991.0
20180225140751 30 240 24.0 34.0 0.00 0.12 0.00 88 992.0
20180225140347 31 244 23.0 30.0 0.00 0.12 0.00 88 990.9
20180225135827 31 244 22.0 34.0 0.00 0.12 0.00 88 990.7
20180225135328 31 244 23.0 34.0 0.00 0.12 0.00 88 990.7
20180225135149 30 279 24.0 34.0 0.00 0.12 0.00 88 991.5
20180225134832 31 242 23.0 30.0 0.00 0.12 0.00 88 990.4
20180225134348 31 236 19.0 28.0 0.00 0.12 0.00 88 990.4
20180225133830 31 243 23.0 28.0 0.00 0.12 0.00 89 990.3
20180225133500 31 248 20.0 24.0 0.00 0.12 0.00 89 991.2
20180225133333 31 245 21.0 25.0 0.00 0.12 0.00 88 990.1
20180225132841 31 244 19.0 24.0 0.00 0.12 0.00 88 990.1
20180225132342 31 242 17.0 23.0 0.00 0.12 0.00 88 990.0
20180225131858 31 256 16.0 22.0 0.00 0.12 0.00 89 990.9
20180225131844 31 250 17.0 22.0 0.00 0.12 0.00 89 989.9
20180225131326 32 248 18.0 23.0 0.00 0.12 0.00 88 989.8
20180225130835 32 240 18.0 25.0 0.00 0.12 0.00 88 989.8
20180225130345 32 257 21.0 25.0 0.00 0.12 0.00 89 989.7
20180225130153 31 242 18.0 22.0 0.00 0.12 0.00 89 990.6
20180225125826 32 233 17.0 22.0 0.00 0.12 0.00 89 989.5
20180225125336 32 236 17.0 22.0 0.00 0.12 0.00 90 989.5
20180225124837 32 244 16.0 22.0 0.00 0.12 0.00 90 989.3
20180225124557 31 236 16.0 22.0 0.00 0.12 0.00 90 990.3
20180225124339 32 242 15.0 19.0 0.00 0.12 0.00 91 989.1
20180225123830 32 240 15.0 19.0 0.00 0.12 0.00 90 989.1
20180225123331 32 248 14.0 18.0 0.00 0.12 0.00 91 989.0
20180225122953 31 236 12.0 18.0 0.00 0.12 0.00 91 989.9
20180225122832 32 243 13.0 18.0 0.00 0.12 0.00 91 988.9
20180225122341 32 234 13.0 17.0 0.00 0.12 0.00 91 988.8
20180225121843 32 244 13.0 17.0 0.00 0.12 0.00 91 988.7
20180225121400 31 235 13.0 16.0 0.00 0.12 0.00 91 989.7
20180225121325 32 241 13.0 16.0 0.00 0.12 0.00 91 988.7
20180225120836 32 242 12.0 17.0 0.00 0.12 0.00 92 988.6
20180225120338 32 232 12.0 17.0 0.00 0.12 0.00 92 988.6
20180225115839 32 250 10.0 14.0 0.00 0.12 0.00 93 988.6
20180225115749 31 229 10.0 14.0 0.00 0.12 0.00 93 989.5
20180225115325 31 227 9.0 13.0 0.00 0.12 0.00 94 988.4
20180225114834 31 236 9.0 12.0 0.00 0.12 0.00 95 988.3
20180225114336 30 254 7.0 12.0 0.00 0.12 0.00 95 988.3
20180225114151 30 240 7.0 12.0 0.00 0.12 0.00 95 989.3
20180225113845 30 225 7.0 12.0 0.00 0.12 0.00 95 988.3
20180225113327 29 245 5.0 7.0 0.00 0.12 0.00 95 988.3
20180225112828 29 240 2.0 6.0 0.00 0.12 0.00 95 988.4
20180225112548 28 240 0.0 0.0 0.00 0.12 0.00 95 989.3
20180225112330 28 240 0.0 0.0 0.00 0.12 0.00 95 988.3
20180225111839 28 240 0.0 0.0 0.00 0.12 0.00 95 988.3
20180225111341 28 240 0.0 0.0 0.00 0.12 0.00 95 988.4
20180225110943 28 213 0.0 0.0 0.00 0.12 0.00 95 989.5
20180225110842 28 213 0.0 0.0 0.00 0.12 0.00 95 988.4
20180225110342 28 213 0.0 0.0 0.00 0.12 0.00 95 988.5
20180225105843 28 194 0.0 0.0 0.00 0.12 0.00 95 988.5
20180225105341 28 195 0.0 0.0 0.00 0.12 0.00 95 989.5
20180225105325 29 63 0.0 0.0 0.00 0.12 0.00 95 988.5
20180225104834 29 63 0.0 0.0 0.00 0.12 0.00 95 988.5
20180225104336 29 63 0.0 0.0 0.00 0.12 0.00 95 988.6
20180225103844 29 63 0.0 0.0 0.00 0.12 0.00 95 988.6
20180225103639 28 63 0.0 0.0 0.00 0.12 0.00 95 989.7
20180225102841 29 63 0.0 0.0 0.00 0.12 0.00 95 988.8
20180225102330 29 63 0.0 0.0 0.00 0.12 0.00 95 988.9
20180225101954 28 63 0.0 0.0 0.00 0.12 0.00 95 990.0
20180225101832 29 63 0.0 0.0 0.00 0.12 0.00 95 989.0
20180225101341 29 63 0.0 0.0 0.00 0.12 0.00 95 989.1
20180225100843 29 63 0.0 0.0 0.00 0.12 0.00 95 989.3
20180225100358 28 63 0.0 0.0 0.00 0.12 0.00 95 990.4
20180225095828 29 63 0.0 0.0 0.00 0.12 0.00 95 989.3
20180225095336 29 63 0.0 0.0 0.00 0.12 0.00 95 989.6
20180225094838 29 63 0.0 0.0 0.00 0.12 0.00 95 989.6
20180225094752 28 63 0.0 0.0 0.00 0.12 0.00 95 990.6
20180225094346 29 63 0.0 0.0 0.00 0.12 0.00 95 989.6
20180225093827 29 63 0.0 0.0 0.00 0.12 0.00 95 989.7
20180225093330 29 63 0.0 0.0 0.00 0.12 0.00 95 989.7
20180225093151 28 63 0.0 0.0 0.00 0.12 0.00 95 990.8
20180225092832 29 63 0.0 0.0 0.00 0.12 0.00 95 989.9
20180225092341 29 63 0.0 0.0 0.00 0.12 0.00 95 990.1
20180225091843 29 63 0.0 0.0 0.00 0.12 0.00 95 990.1
20180225091556 28 63 0.0 0.0 0.00 0.12 0.00 95 991.2
20180225091325 29 63 0.0 0.0 0.00 0.12 0.00 95 990.3
20180225090848 29 62 0.0 0.0 0.00 0.12 0.00 95 990.4
20180225090330 29 62 0.0 0.0 0.00 0.12 0.00 95 990.2
20180225085831 29 60 0.0 0.0 0.00 0.12 0.00 94 990.3
20180225085754 28 60 0.0 0.0 0.00 0.12 0.00 94 991.4
20180225085334 29 60 0.0 0.0 0.00 0.12 0.00 94 990.7
20180225084843 29 60 0.0 0.0 0.00 0.12 0.00 94 990.9
20180225084324 29 61 0.0 0.0 0.00 0.12 0.00 94 991.1
20180225084157 28 61 0.0 0.0 0.00 0.12 0.00 94 992.4
20180225083827 29 60 0.0 0.0 0.00 0.12 0.00 94 991.5
20180225083336 29 61 0.0 0.0 0.00 0.12 0.00 94 991.6
20180225082838 29 60 0.0 0.0 0.00 0.12 0.00 94 991.7
20180225082500 29 60 0.0 0.0 0.00 0.12 0.00 94 992.9
20180225082327 29 60 0.0 0.0 0.00 0.12 0.00 94 991.8
20180225081837 29 61 0.0 0.0 0.00 0.12 0.00 94 992.1
20180225081338 29 61 0.0 0.0 0.00 0.12 0.00 94 992.4
20180225080900 29 57 0.0 0.0 0.00 0.12 0.00 94 993.6
20180225080840 29 57 0.0 0.0 0.00 0.12 0.00 94 992.6
20180225080330 29 51 0.0 0.0 0.00 0.12 0.00 94 992.7
20180225075837 29 51 0.0 0.0 0.00 0.12 0.00 94 993.0
20180225075339 29 51 0.0 0.0 0.00 0.12 0.00 94 993.1
20180225075159 29 51 0.0 0.0 0.00 0.12 0.00 94 994.2
20180225074841 29 51 0.0 0.0 0.00 0.12 0.00 94 993.2
20180225074332 29 51 0.0 0.0 0.00 0.12 0.00 94 993.4
20180225073833 29 52 0.0 0.0 0.00 0.12 0.00 94 993.5
20180225073601 29 52 0.0 0.0 0.00 0.12 0.00 94 994.8
20180225073336 29 52 0.0 0.0 0.00 0.12 0.00 94 993.8
20180225072845 29 53 0.0 0.0 0.00 0.12 0.00 94 993.8
20180225072327 29 53 0.0 0.0 0.00 0.12 0.00 94 993.6
20180225072002 29 53 0.0 0.0 0.00 0.12 0.00 94 994.7
20180225071829 29 71 0.0 0.0 0.00 0.12 0.00 94 993.7
20180225070848 30 71 0.0 0.0 0.00 0.12 0.00 94 994.2
20180225070417 29 71 0.0 0.0 0.00 0.12 0.00 94 995.6
20180225070330 30 71 0.0 0.0 0.00 0.12 0.00 94 994.5
20180225065831 30 71 0.0 0.0 0.00 0.12 0.00 94 994.9
20180225065340 30 71 0.0 0.0 0.00 0.12 0.00 93 995.0
20180225064842 30 18 0.0 0.0 0.00 0.12 0.00 93 995.1
20180225064808 29 17 0.0 0.0 0.00 0.12 0.00 93 996.2
20180225064324 30 331 0.0 0.0 0.00 0.12 0.00 93 995.5
20180225063826 30 325 0.0 0.0 0.00 0.12 0.00 93 995.4
20180225063336 30 325 0.0 0.0 0.00 0.12 0.00 93 995.8
20180225063115 29 325 0.0 0.0 0.00 0.12 0.00 93 996.8
20180225062825 30 325 0.0 0.0 0.00 0.12 0.00 92 996.0
20180225062327 30 325 0.0 3.0 0.00 0.12 0.00 92 995.9
20180225061522 29 52 0.0 0.0 0.00 0.12 0.00 92 997.0
20180225061324 30 52 0.0 0.0 0.00 0.12 0.00 92 995.9
20180225060828 30 52 0.0 3.0 0.00 0.12 0.00 92 996.1
20180225060331 30 52 0.0 3.0 0.00 0.12 0.00 91 996.0
20180225055926 30 47 1.0 3.0 0.00 0.12 0.00 91 997.2
20180225055839 30 26 1.0 2.0 0.00 0.12 0.00 91 996.2
20180225055341 31 59 0.0 3.0 0.00 0.12 0.00 90 996.3
20180225054850 31 61 0.0 5.0 0.00 0.12 0.00 90 996.4
20180225054332 31 49 1.0 8.0 0.00 0.12 0.00 89 996.5
20180225054318 30 49 1.0 8.0 0.00 0.12 0.00 89 997.6
20180225053834 31 105 4.0 8.0 0.00 0.12 0.00 87 997.1
20180225053337 32 161 1.0 4.0 0.00 0.12 0.00 85 998.1
20180225052845 32 182 1.0 9.0 0.00 0.12 0.00 83 998.1
20180225052717 32 141 1.0 9.0 0.00 0.12 0.00 82 999.1
20180225052327 32 82 3.0 9.0 0.00 0.12 0.00 79 997.6
20180225051836 32 131 4.0 8.0 0.00 0.12 0.00 77 997.8
20180225051345 32 82 3.0 8.0 0.00 0.12 0.00 75 997.7
20180225051025 32 86 2.0 12.0 0.00 0.12 0.00 75 998.5
20180225050827 32 101 3.0 12.0 0.00 0.12 0.00 75 997.3
20180225050329 32 46 5.0 11.0 0.00 0.12 0.00 75 997.4
20180225045827 32 36 3.0 8.0 0.00 0.12 0.12 75 997.8
20180225045426 32 39 1.0 7.0 0.00 0.12 0.12 75 999.3
20180225045336 32 65 1.0 7.0 0.00 0.12 0.12 76 998.3
20180225044837 32 54 4.0 7.0 0.00 0.12 0.12 75 998.4
20180225044425 32 51 2.0 9.0 0.00 0.12 0.12 74 998.7
20180225043845 32 56 5.0 9.0 0.00 0.12 0.12 74 999.2
20180225043726 32 76 4.0 10.0 0.00 0.12 0.12 74 1000.3
20180225043328 32 78 4.0 11.0 0.00 0.12 0.12 74 999.5
20180225042829 33 63 5.0 14.0 0.00 0.12 0.12 74 999.4
20180225042327 33 53 5.0 11.0 0.00 0.12 0.12 73 999.8
20180225042123 32 49 3.0 11.0 0.00 0.12 0.12 73 1001.3
20180225041835 33 53 1.0 5.0 0.00 0.12 0.12 73 1000.6
20180225041336 33 42 1.0 8.0 0.00 0.12 0.12 72 1001.2
20180225040845 33 119 3.0 8.0 0.00 0.12 0.12 72 1001.3
20180225040523 32 78 5.0 8.0 0.00 0.12 0.12 72 1002.3
20180225040335 33 82 5.0 8.0 0.00 0.12 0.12 72 1001.0
20180225035836 33 78 5.0 11.0 0.00 0.12 0.12 71 1001.6
20180225035338 33 69 5.0 13.0 0.00 0.12 0.12 71 1002.0
20180225034847 33 64 4.0 13.0 0.00 0.12 0.12 71 1002.2
20180225034821 32 56 3.0 13.0 0.00 0.12 0.12 71 1003.4
20180225034329 33 132 6.0 13.0 0.00 0.12 0.12 70 1001.9
20180225033832 33 79 7.0 13.0 0.00 0.12 0.12 70 1002.0
20180225033341 33 117 4.0 15.0 0.00 0.12 0.12 70 1002.3
20180225033223 33 84 6.0 15.0 0.00 0.12 0.12 69 1003.5
20180225032842 33 109 8.0 18.0 0.00 0.12 0.12 69 1002.7
20180225032325 34 59 7.0 18.0 0.00 0.12 0.12 68 1002.6
20180225031854 34 76 5.0 17.0 0.00 0.12 0.12 68 1003.7